Time;durP1;ratioP1;P1;durP2;ratioP2;P2;SDS_P1;SDS_P2;PMS_P1;PMS_P2;Temp;Humidity;BMP_temperature;BMP_pressure;BME280_temperature;BME280_humidity;BME280_pressure;Samples;Min_cycle;Max_cycle;Signal;HPM_P1;HPM_P2
2022/04/03 00:00:37;;;;;;;14.18;8.40;;;;;;;4.05;100.00;100157.72;5106805;28;20031;-80
2022/04/03 00:03:04;;;;;;;17.00;8.07;;;;;;;3.96;100.00;100158.50;5105361;28;20024;-81
2022/04/03 00:05:33;;;;;;;14.35;8.57;;;;;;;4.00;100.00;100155.50;5104779;28;20028;-81
2022/04/03 00:07:59;;;;;;;15.10;7.93;;;;;;;4.00;100.00;100155.50;5105546;28;20067;-82
2022/04/03 00:10:24;;;;;;;17.27;7.97;;;;;;;3.86;100.00;100154.00;5107343;28;20047;-80
2022/04/03 00:12:50;;;;;;;13.57;7.70;;;;;;;3.89;100.00;100149.53;5104156;28;20449;-81
2022/04/03 00:15:16;;;;;;;11.70;7.32;;;;;;;3.91;100.00;100150.22;5108696;28;20027;-81
2022/04/03 00:17:43;;;;;;;11.57;7.15;;;;;;;3.81;100.00;100150.13;5110497;28;20030;-81
2022/04/03 00:20:10;;;;;;;16.90;7.93;;;;;;;4.00;100.00;100157.28;5105025;28;20027;-82
2022/04/03 00:22:36;;;;;;;12.98;7.22;;;;;;;3.97;100.00;100154.94;5085986;28;20031;-82
2022/04/03 00:25:03;;;;;;;9.82;6.50;;;;;;;3.96;100.00;100145.50;5101595;28;20470;-82
2022/04/03 00:27:29;;;;;;;15.95;7.05;;;;;;;3.99;100.00;100142.66;5103599;28;20036;-82
2022/04/03 00:29:55;;;;;;;12.93;6.68;;;;;;;3.83;100.00;100149.06;5101975;28;20031;-82
2022/04/03 00:32:22;;;;;;;14.55;7.57;;;;;;;3.85;100.00;100134.19;5103564;28;20072;-81
2022/04/03 00:34:48;;;;;;;12.40;7.00;;;;;;;3.84;100.00;100139.53;5103579;28;20023;-83
2022/04/03 00:37:14;;;;;;;12.48;7.45;;;;;;;4.01;100.00;100151.13;5104207;28;20035;-82
2022/04/03 00:39:39;;;;;;;13.50;6.85;;;;;;;3.82;100.00;100136.19;5102597;27;20473;-80
2022/04/03 00:42:09;;;;;;;11.48;6.72;;;;;;;3.98;100.00;100136.63;5101459;28;20081;-82
2022/04/03 00:44:37;;;;;;;12.88;7.18;;;;;;;3.85;100.00;100131.59;5102694;28;20039;-82
2022/04/03 00:47:04;;;;;;;13.82;7.55;;;;;;;3.90;100.00;100131.22;5100315;28;20452;-82
2022/04/03 00:49:30;;;;;;;9.70;6.18;;;;;;;3.85;100.00;100110.00;5100186;28;20106;-83
2022/04/03 00:51:56;;;;;;;10.52;6.38;;;;;;;3.99;100.00;100137.44;5102024;28;20035;-83
2022/04/03 00:54:21;;;;;;;11.18;6.85;;;;;;;3.88;100.00;100129.69;5101145;28;20036;-81
2022/04/03 00:56:47;;;;;;;13.00;7.10;;;;;;;3.91;100.00;100134.63;5098261;28;20125;-82
2022/04/03 00:59:14;;;;;;;12.25;6.85;;;;;;;3.88;100.00;100130.53;5100517;28;20061;-81
2022/04/03 01:01:41;;;;;;;12.25;7.55;;;;;;;3.88;100.00;100140.06;5102604;28;20039;-82
2022/04/03 01:04:08;;;;;;;13.98;7.13;;;;;;;3.89;100.00;100126.13;5083496;28;20032;-81
2022/04/03 01:06:34;;;;;;;11.38;7.15;;;;;;;3.86;100.00;100125.44;5102527;28;20032;-81
2022/04/03 01:09:02;;;;;;;13.52;7.50;;;;;;;3.93;100.00;100127.53;5102099;28;20469;-81
2022/04/03 01:11:29;;;;;;;13.50;6.65;;;;;;;3.81;100.00;100125.00;5101622;28;20028;-82
2022/04/03 01:13:55;;;;;;;15.15;7.75;;;;;;;3.78;100.00;100125.25;5103833;28;20504;-81
2022/04/03 01:16:21;;;;;;;13.63;7.47;;;;;;;3.68;100.00;100119.13;5100163;28;20047;-82
2022/04/03 01:18:47;;;;;;;15.38;7.82;;;;;;;3.77;100.00;100134.00;5105620;28;20077;-81
2022/04/03 01:21:13;;;;;;;13.93;7.75;;;;;;;3.77;100.00;100139.19;5099803;28;20089;-81
2022/04/03 01:23:40;;;;;;;15.55;7.75;;;;;;;3.64;100.00;100128.13;5101167;28;20119;-81
2022/04/03 01:26:05;;;;;;;15.05;7.85;;;;;;;3.77;100.00;100126.19;5103139;28;20028;-82
2022/04/03 01:28:31;;;;;;;16.90;8.50;;;;;;;3.54;100.00;100110.69;5099326;28;20035;-83
2022/04/03 01:30:57;;;;;;;19.83;8.75;;;;;;;3.73;100.00;100137.75;5100073;28;20039;-82
2022/04/03 01:33:23;;;;;;;15.05;8.68;;;;;;;3.69;100.00;100134.59;5096986;28;20057;-82
2022/04/03 01:35:49;;;;;;;16.17;8.45;;;;;;;3.65;100.00;100134.97;5099375;28;20032;-82
2022/04/03 01:38:14;;;;;;;15.23;7.60;;;;;;;3.65;100.00;100130.59;5098296;28;20032;-81
2022/04/03 01:40:41;;;;;;;15.15;8.15;;;;;;;3.56;100.00;100128.72;5099250;28;20385;-82
2022/04/03 01:43:09;;;;;;;16.70;8.40;;;;;;;3.60;100.00;100137.09;5099736;28;20039;-81
2022/04/03 01:45:39;;;;;;;18.00;8.98;;;;;;;3.51;100.00;100129.09;5094129;28;20069;-82
2022/04/03 01:48:06;;;;;;;18.13;8.50;;;;;;;3.46;100.00;100140.81;5099860;28;20023;-82
2022/04/03 01:50:32;;;;;;;14.82;7.85;;;;;;;3.49;100.00;100125.78;5101902;28;20042;-82
2022/04/03 01:52:58;;;;;;;17.23;8.45;;;;;;;3.35;100.00;100131.25;5099642;28;20028;-82
2022/04/03 01:55:24;;;;;;;18.90;9.27;;;;;;;3.33;100.00;100122.75;5096360;28;20133;-82
2022/04/03 01:57:50;;;;;;;19.25;9.95;;;;;;;3.45;100.00;100131.38;5099205;28;20111;-82
2022/04/03 02:00:16;;;;;;;20.92;9.30;;;;;;;3.31;100.00;100133.25;5101044;28;20122;-82
2022/04/03 02:02:42;;;;;;;16.52;8.85;;;;;;;3.26;100.00;100115.44;5100584;28;20059;-82
2022/04/03 02:05:08;;;;;;;17.75;9.23;;;;;;;3.22;100.00;100102.81;5107223;28;20032;-81
2022/04/03 02:07:34;;;;;;;25.08;10.63;;;;;;;3.20;100.00;100100.38;5099553;28;20473;-81
2022/04/03 02:10:02;;;;;;;16.73;8.48;;;;;;;3.28;100.00;100108.38;5101766;28;20031;-82
2022/04/03 02:12:28;;;;;;;18.00;9.13;;;;;;;3.36;100.00;100104.38;5099974;28;20030;-81
2022/04/03 02:14:53;;;;;;;18.17;9.77;;;;;;;3.37;100.00;100095.63;5098598;28;20032;-82
2022/04/03 02:17:19;;;;;;;16.60;9.00;;;;;;;3.28;100.00;100092.78;5099986;28;20027;-81
2022/04/03 02:19:45;;;;;;;14.93;8.65;;;;;;;3.40;100.00;100105.75;5098625;28;20039;-81
2022/04/03 02:22:10;;;;;;;15.27;8.90;;;;;;;3.33;100.00;100101.97;5101476;28;20027;-82
2022/04/03 02:24:36;;;;;;;18.33;9.82;;;;;;;3.37;100.00;100108.59;5100835;28;20067;-82
2022/04/03 02:27:02;;;;;;;16.42;9.45;;;;;;;3.18;100.00;100085.84;5101413;28;20042;-81
2022/04/03 02:29:28;;;;;;;15.10;8.95;;;;;;;3.18;100.00;100097.06;5082047;28;20089;-82
2022/04/03 02:31:53;;;;;;;16.50;8.85;;;;;;;3.12;100.00;100089.75;5106724;28;20489;-82
2022/04/03 02:34:19;;;;;;;18.55;9.52;;;;;;;3.19;100.00;100084.91;5096926;28;20034;-82
2022/04/03 02:36:45;;;;;;;18.25;8.85;;;;;;;3.26;100.00;100071.34;5100716;28;20466;-82
2022/04/03 02:39:14;;;;;;;19.25;9.40;;;;;;;3.43;100.00;100085.56;5098342;28;20085;-82
2022/04/03 02:41:40;;;;;;;19.25;9.20;;;;;;;3.47;100.00;100091.34;5096866;28;20127;-82
2022/04/03 02:44:05;;;;;;;17.38;9.57;;;;;;;3.41;100.00;100086.66;5097011;28;20111;-82
2022/04/03 02:46:32;;;;;;;20.17;10.65;;;;;;;3.49;100.00;100094.63;5096792;28;20359;-81
2022/04/03 02:48:57;;;;;;;24.17;11.07;;;;;;;3.49;100.00;100091.22;5095999;28;20089;-81
2022/04/03 02:51:23;;;;;;;18.90;9.70;;;;;;;3.49;100.00;100083.44;5091793;28;20063;-80
2022/04/03 02:53:49;;;;;;;20.48;10.48;;;;;;;3.54;100.00;100082.13;5097690;28;20070;-81
2022/04/03 02:56:15;;;;;;;19.60;10.82;;;;;;;3.56;100.00;100084.59;5097437;28;20448;-81
2022/04/03 02:58:40;;;;;;;20.85;11.82;;;;;;;3.53;100.00;100083.06;5099768;28;20144;-80
2022/04/03 03:01:08;;;;;;;21.77;10.60;;;;;;;3.50;100.00;100072.13;5096048;28;20036;-81
2022/04/03 03:03:33;;;;;;;18.48;10.32;;;;;;;3.60;100.00;100077.38;5082620;28;20024;-81
2022/04/03 03:05:59;;;;;;;21.48;10.98;;;;;;;3.61;100.00;100076.44;5098356;28;20031;-81
2022/04/03 03:08:24;;;;;;;18.35;10.38;;;;;;;3.66;100.00;100082.06;5102172;28;20032;-81
2022/04/03 03:10:50;;;;;;;21.40;10.85;;;;;;;3.72;100.00;100073.78;5102813;28;20036;-80
2022/04/03 03:13:16;;;;;;;17.85;10.20;;;;;;;3.75;100.00;100068.38;5101381;28;20011;-81
2022/04/03 03:15:42;;;;;;;19.75;10.95;;;;;;;3.63;100.00;100069.34;5106402;28;20047;-80
2022/04/03 03:18:08;;;;;;;26.48;11.43;;;;;;;3.68;100.00;100068.03;5106169;28;20465;-80
2022/04/03 03:20:34;;;;;;;20.98;11.40;;;;;;;3.76;100.00;100071.78;5107078;28;20020;-81
2022/04/03 03:23:00;;;;;;;22.08;11.38;;;;;;;3.60;100.00;100059.22;5101522;28;20040;-81
2022/04/03 03:25:28;;;;;;;21.70;12.38;;;;;;;3.45;100.00;100050.91;5099035;28;20031;-81
2022/04/03 03:27:53;;;;;;;21.20;10.93;;;;;;;3.63;100.00;100058.97;5102532;28;20175;-81
2022/04/03 03:30:20;;;;;;;20.17;11.60;;;;;;;3.74;100.00;100071.91;5099993;28;20127;-81
2022/04/03 03:32:45;;;;;;;21.73;11.65;;;;;;;3.84;100.00;100072.81;5105811;28;20039;-81
2022/04/03 03:35:11;;;;;;;23.65;11.70;;;;;;;3.81;100.00;100070.47;5103656;28;20027;-80
2022/04/03 03:37:38;;;;;;;23.05;11.93;;;;;;;3.89;100.00;100056.84;5104802;28;20039;-81
2022/04/03 03:40:06;;;;;;;21.23;12.00;;;;;;;3.96;100.00;100068.38;5104166;28;20032;-82
2022/04/03 03:42:33;;;;;;;23.27;13.10;;;;;;;4.07;100.00;100064.88;5098450;28;20039;-82
2022/04/03 03:44:59;;;;;;;24.55;12.07;;;;;;;4.16;100.00;100068.50;5099655;28;20477;-82
2022/04/03 03:47:26;;;;;;;20.85;11.75;;;;;;;4.25;100.00;100061.72;5104293;28;20031;-82
2022/04/03 03:49:52;;;;;;;22.92;13.05;;;;;;;4.12;100.00;100057.53;5100457;28;20020;-82
2022/04/03 03:52:21;;;;;;;22.85;12.55;;;;;;;4.14;100.00;100047.03;5098955;28;20073;-82
2022/04/03 03:54:47;;;;;;;22.50;13.30;;;;;;;4.12;100.00;100043.72;5100822;28;20036;-82
2022/04/03 03:57:13;;;;;;;23.48;12.15;;;;;;;4.20;100.00;100050.88;5105077;28;20032;-83
2022/04/03 03:59:38;;;;;;;21.63;12.77;;;;;;;4.09;100.00;100044.00;5104578;28;20034;-82
2022/04/03 04:02:04;;;;;;;25.45;13.35;;;;;;;4.13;100.00;100037.56;5101261;28;20407;-82
2022/04/03 04:04:30;;;;;;;27.77;12.82;;;;;;;4.25;100.00;100046.13;5108885;28;20498;-81
2022/04/03 04:06:56;;;;;;;22.75;12.20;;;;;;;4.26;100.00;100038.22;5105310;28;20032;-83
2022/04/03 04:09:22;;;;;;;29.27;13.98;;;;;;;4.32;100.00;100054.22;5105635;28;20035;-83
2022/04/03 04:11:48;;;;;;;25.65;13.45;;;;;;;4.47;100.00;100057.31;5099472;28;20046;-81
2022/04/03 04:14:14;;;;;;;25.17;12.68;;;;;;;4.54;100.00;100056.66;5099947;28;20076;-81
2022/04/03 04:16:40;;;;;;;22.73;13.02;;;;;;;4.62;100.00;100056.03;5108969;28;20537;-81
2022/04/03 04:19:06;;;;;;;24.48;13.57;;;;;;;4.62;100.00;100055.19;5104763;28;20027;-81
2022/04/03 04:21:32;;;;;;;26.60;13.02;;;;;;;4.62;100.00;100050.81;5109228;28;20023;-81
2022/04/03 04:23:58;;;;;;;23.58;14.23;;;;;;;4.82;100.00;100056.09;5098342;28;20031;-80
2022/04/03 04:26:25;;;;;;;27.75;13.45;;;;;;;4.67;100.00;100038.25;5106119;28;20027;-81
2022/04/03 04:28:51;;;;;;;25.70;13.75;;;;;;;4.76;100.00;100052.22;5101533;28;20028;-82
2022/04/03 04:31:18;;;;;;;23.63;13.65;;;;;;;4.58;100.00;100050.25;5084049;28;20032;-81
2022/04/03 04:33:44;;;;;;;24.73;12.95;;;;;;;4.89;100.00;100056.41;5107735;28;20035;-81
2022/04/03 04:36:10;;;;;;;24.33;13.07;;;;;;;4.67;100.00;100046.03;5105089;28;20477;-81
2022/04/03 04:38:36;;;;;;;26.10;12.88;;;;;;;4.94;100.00;100057.66;5104058;28;20038;-82
2022/04/03 04:41:02;;;;;;;23.55;12.27;;;;;;;5.04;100.00;100052.47;5104132;28;20031;-81
2022/04/03 04:43:28;;;;;;;23.13;11.25;;;;;;;5.02;100.00;100053.56;5103079;28;20039;-81
2022/04/03 04:45:54;;;;;;;24.10;11.35;;;;;;;4.97;100.00;100048.75;5101691;28;20031;-81
2022/04/03 04:48:19;;;;;;;23.00;11.77;;;;;;;5.04;100.00;100054.22;5098462;27;20039;-82
2022/04/03 04:50:46;;;;;;;22.17;11.85;;;;;;;5.13;100.00;100048.25;5101499;28;20096;-81
2022/04/03 04:53:11;;;;;;;20.80;11.05;;;;;;;5.02;100.00;100040.53;5100020;28;20032;-80
2022/04/03 04:55:37;;;;;;;17.92;10.68;;;;;;;4.93;100.00;100036.97;5102343;28;20024;-80
2022/04/03 04:58:02;;;;;;;20.08;11.73;;;;;;;5.03;100.00;100035.22;5104225;28;20032;-81
2022/04/03 05:00:30;;;;;;;19.27;10.02;;;;;;;5.03;100.00;100031.78;5101283;28;20409;-81
2022/04/03 05:02:56;;;;;;;20.40;10.30;;;;;;;5.18;100.00;100029.59;5099306;28;20036;-81
2022/04/03 05:05:24;;;;;;;22.35;9.50;;;;;;;5.19;100.00;100020.84;5104146;28;20120;-81
2022/04/03 05:07:53;;;;;;;22.00;10.63;;;;;;;5.16;100.00;100040.16;5095165;28;20118;-81
2022/04/03 05:10:20;;;;;;;19.98;10.10;;;;;;;5.25;100.00;100028.94;5103651;28;20043;-81
2022/04/03 05:12:46;;;;;;;17.83;8.98;;;;;;;5.23;100.00;100040.47;5101810;28;20028;-80
2022/04/03 05:15:12;;;;;;;16.02;9.18;;;;;;;5.37;100.00;100034.03;5102618;28;20027;-80
2022/04/03 05:17:43;;;;;;;15.27;8.45;;;;;;;5.11;100.00;100018.91;5105240;28;20080;-80
2022/04/03 05:20:11;;;;;;;14.77;8.18;;;;;;;5.09;100.00;100028.63;5099163;28;20035;-82
2022/04/03 05:22:38;;;;;;;14.95;8.43;;;;;;;5.15;100.00;100030.72;5100132;28;20115;-79
2022/04/03 05:25:05;;;;;;;15.63;7.45;;;;;;;5.28;100.00;100031.25;5100631;28;20440;-82
2022/04/03 05:27:34;;;;;;;13.57;6.93;;;;;;;5.11;100.00;100014.53;5105468;28;20477;-81
2022/04/03 05:29:59;;;;;;;10.93;6.40;;;;;;;5.26;100.00;100009.75;5097888;28;20074;-82
2022/04/03 05:32:28;;;;;;;11.38;6.28;;;;;;;5.15;100.00;100015.09;5097745;28;20106;-81
2022/04/03 05:34:55;;;;;;;11.40;6.20;;;;;;;4.94;100.00;100007.38;5099983;28;20031;-81
2022/04/03 05:37:21;;;;;;;12.45;6.00;;;;;;;5.06;100.00;99995.06;5091361;28;20119;-81
2022/04/03 05:39:49;;;;;;;11.68;6.60;;;;;;;5.13;100.00;99996.19;5102143;28;20076;-81
2022/04/03 05:42:15;;;;;;;8.43;5.07;;;;;;;5.12;100.00;100007.56;5096382;28;20511;-82
2022/04/03 05:44:40;;;;;;;8.60;4.82;;;;;;;5.06;100.00;100010.69;5098423;28;20024;-82
2022/04/03 05:47:06;;;;;;;11.00;5.45;;;;;;;4.92;100.00;99986.72;5101332;28;20036;-81
2022/04/03 05:49:33;;;;;;;10.98;5.80;;;;;;;5.02;100.00;100004.94;5099526;28;20024;-80
2022/04/03 05:51:59;;;;;;;12.35;5.93;;;;;;;5.04;100.00;99997.00;5102375;28;20039;-80
2022/04/03 05:54:25;;;;;;;11.30;5.88;;;;;;;4.82;100.00;99993.66;5101366;28;20047;-83
2022/04/03 05:56:50;;;;;;;10.75;6.28;;;;;;;5.11;100.00;99998.09;5100153;28;20481;-82
2022/04/03 05:59:18;;;;;;;10.70;6.45;;;;;;;5.11;100.00;100005.88;5103895;28;20107;-82
2022/04/03 06:01:44;;;;;;;11.27;6.65;;;;;;;4.92;100.00;100009.28;5095533;28;20115;-82
2022/04/03 06:04:09;;;;;;;15.05;6.85;;;;;;;5.13;100.00;100010.00;5094313;28;20115;-82
2022/04/03 06:06:35;;;;;;;14.20;7.00;;;;;;;5.18;100.00;100020.03;5104526;28;20031;-83
2022/04/03 06:09:01;;;;;;;16.73;7.72;;;;;;;5.10;100.00;100006.84;5102286;28;20028;-82
2022/04/03 06:11:26;;;;;;;12.73;7.13;;;;;;;5.28;100.00;100012.22;5097832;28;20107;-81
2022/04/03 06:13:52;;;;;;;18.35;8.85;;;;;;;5.07;100.00;100001.91;5102116;28;20115;-81
2022/04/03 06:16:17;;;;;;;19.17;9.20;;;;;;;5.37;100.00;100008.00;5099259;28;20050;-81
2022/04/03 06:18:43;;;;;;;16.85;8.77;;;;;;;5.18;100.00;99999.22;5103773;28;20039;-80
2022/04/03 06:21:09;;;;;;;18.33;9.00;;;;;;;5.49;100.00;100001.66;5103366;28;20036;-81
2022/04/03 06:23:34;;;;;;;15.63;8.93;;;;;;;5.51;100.00;99998.94;5107274;28;20057;-82
2022/04/03 06:26:02;;;;;;;16.55;10.77;;;;;;;5.54;100.00;100009.06;5103418;28;20123;-82
2022/04/03 06:28:28;;;;;;;15.68;8.57;;;;;;;5.64;100.00;100006.47;5085503;28;20074;-83
2022/04/03 06:30:55;;;;;;;16.02;10.32;;;;;;;5.70;100.00;100013.75;5101183;28;20054;-84
2022/04/03 06:33:21;;;;;;;19.20;10.50;;;;;;;5.68;100.00;100018.25;5096765;28;20026;-83
2022/04/03 06:35:48;;;;;;;17.90;10.13;;;;;;;5.82;100.00;100009.22;5094709;28;20055;-83
2022/04/03 06:38:15;;;;;;;18.30;10.88;;;;;;;5.71;100.00;100020.59;5102203;28;20458;-83
2022/04/03 06:40:54;;;;;;;20.30;11.38;;;;;;;5.74;100.00;100020.31;5099985;28;20489;-82
2022/04/03 06:43:29;;;;;;;19.45;12.65;;;;;;;5.97;100.00;100014.81;5101610;28;20039;-83
2022/04/03 06:45:55;;;;;;;19.77;12.35;;;;;;;5.91;100.00;100021.38;5100915;28;20039;-82
2022/04/03 06:48:22;;;;;;;18.30;11.85;;;;;;;5.98;100.00;100021.66;5101865;28;20028;-83
2022/04/03 06:50:47;;;;;;;22.55;12.93;;;;;;;5.66;100.00;100017.56;5105412;28;20044;-82
2022/04/03 06:53:13;;;;;;;20.83;12.63;;;;;;;5.83;100.00;100009.06;5102625;28;20379;-83
2022/04/03 06:55:39;;;;;;;22.00;11.93;;;;;;;5.71;100.00;100025.81;5105728;28;20043;-83
2022/04/03 06:58:05;;;;;;;19.65;11.60;;;;;;;5.81;100.00;100015.38;5110041;28;20035;-84
2022/04/03 07:00:31;;;;;;;19.83;11.43;;;;;;;5.97;100.00;99999.16;5102885;28;20114;-83
2022/04/03 07:02:56;;;;;;;22.42;13.48;;;;;;;5.99;100.00;100018.09;5103116;28;20055;-83
2022/04/03 07:05:22;;;;;;;20.77;12.18;;;;;;;6.06;100.00;100008.75;5104535;28;20028;-83
2022/04/03 07:07:52;;;;;;;20.10;11.63;;;;;;;5.99;100.00;100011.09;5104477;28;20023;-84
2022/04/03 07:10:18;;;;;;;20.35;12.45;;;;;;;6.25;100.00;100027.91;5095174;28;20063;-84
2022/04/03 07:12:43;;;;;;;21.10;12.05;;;;;;;6.30;100.00;100020.50;5097270;28;20055;-83
2022/04/03 07:15:12;;;;;;;20.55;11.98;;;;;;;6.04;100.00;100015.91;5093258;28;20024;-84
2022/04/03 07:17:41;;;;;;;16.98;11.00;;;;;;;6.40;100.00;100015.25;5083724;28;20055;-84
2022/04/03 07:20:09;;;;;;;20.60;11.73;;;;;;;6.34;99.19;100002.78;5102799;28;20034;-85
2022/04/03 07:22:34;;;;;;;18.70;12.27;;;;;;;6.57;98.90;100016.28;5101904;28;20043;-85
2022/04/03 07:25:00;;;;;;;20.55;11.93;;;;;;;6.22;99.32;100004.75;5102654;28;20032;-82
2022/04/03 07:27:27;;;;;;;19.77;11.20;;;;;;;6.46;99.52;100030.34;5112897;28;20023;-82
2022/04/03 07:29:53;;;;;;;16.92;10.70;;;;;;;6.59;99.16;100011.75;5109356;28;20626;-77
2022/04/03 07:32:18;;;;;;;18.58;10.43;;;;;;;6.59;98.03;100009.13;5093341;28;20110;-78
2022/04/03 07:34:44;;;;;;;20.23;11.82;;;;;;;6.95;96.96;100008.38;5103745;28;20039;-76
2022/04/03 07:37:09;;;;;;;18.35;10.57;;;;;;;7.04;96.12;100001.47;5100850;28;20032;-79
2022/04/03 07:39:35;;;;;;;16.17;10.52;;;;;;;7.05;96.14;100014.38;5105484;28;20529;-76
2022/04/03 07:42:03;;;;;;;22.00;13.23;;;;;;;7.33;96.56;100016.13;5102454;28;20049;-76
2022/04/03 07:44:29;;;;;;;19.73;12.65;;;;;;;7.23;95.77;100011.78;5103533;28;20031;-76
2022/04/03 07:46:55;;;;;;;24.27;12.70;;;;;;;7.19;94.89;100007.81;5105930;28;20034;-77
2022/04/03 07:49:21;;;;;;;19.90;11.88;;;;;;;7.31;94.57;100007.63;5106448;28;20080;-77
2022/04/03 07:51:47;;;;;;;20.25;12.55;;;;;;;7.45;94.43;100016.72;5101978;28;20032;-79
2022/04/03 07:54:16;;;;;;;18.98;10.85;;;;;;;7.51;94.87;100009.09;5104778;28;20394;-78
2022/04/03 07:56:41;;;;;;;20.35;11.73;;;;;;;7.54;94.02;100013.19;5100673;28;20043;-78
2022/04/03 07:59:07;;;;;;;18.23;11.65;;;;;;;7.74;93.81;100019.09;5101853;28;20028;-80
2022/04/03 08:01:33;;;;;;;17.77;9.85;;;;;;;7.75;93.19;100010.28;5106052;28;20495;-78
2022/04/03 08:03:59;;;;;;;15.98;9.52;;;;;;;7.74;92.56;100021.69;5106591;28;20031;-79
2022/04/03 08:06:25;;;;;;;19.23;10.50;;;;;;;7.62;93.06;100035.97;5101471;27;20037;-79
2022/04/03 08:08:51;;;;;;;16.95;10.75;;;;;;;7.60;94.12;100012.59;5081571;28;20047;-80
2022/04/03 08:11:18;;;;;;;18.95;11.05;;;;;;;7.84;93.85;100014.56;5096723;28;20081;-80
2022/04/03 08:13:43;;;;;;;17.60;11.07;;;;;;;7.89;93.81;100021.16;5099834;28;20051;-79
2022/04/03 08:16:09;;;;;;;18.85;10.98;;;;;;;7.74;94.68;100011.25;5099401;28;20421;-80
2022/04/03 08:18:35;;;;;;;17.33;11.55;;;;;;;7.85;95.04;100021.44;5105918;28;20031;-80
2022/04/03 08:21:01;;;;;;;16.25;11.63;;;;;;;7.46;96.00;100010.53;5102216;28;20477;-79
2022/04/03 08:23:27;;;;;;;17.80;11.02;;;;;;;7.61;96.96;100021.25;5106378;28;20031;-79
2022/04/03 08:25:53;;;;;;;16.90;11.15;;;;;;;7.72;95.94;100021.84;5102088;28;20401;-79
2022/04/03 08:28:19;;;;;;;16.80;11.32;;;;;;;7.50;97.66;100022.31;5104093;28;20031;-79
2022/04/03 08:30:45;;;;;;;16.27;10.88;;;;;;;7.45;97.89;100014.09;5105627;28;20039;-79
2022/04/03 08:33:11;;;;;;;18.30;11.48;;;;;;;7.71;98.14;100029.84;5099929;28;20358;-78
2022/04/03 08:35:38;;;;;;;22.40;12.10;;;;;;;7.56;99.12;100029.53;5102993;28;20469;-76
2022/04/03 08:38:05;;;;;;;18.13;11.77;;;;;;;7.58;99.24;100031.03;5097071;28;20031;-75
2022/04/03 08:40:32;;;;;;;15.98;10.65;;;;;;;7.33;99.93;100031.78;5106832;28;20693;-78
2022/04/03 08:42:58;;;;;;;19.58;11.77;;;;;;;7.52;100.00;100029.03;5101450;28;20473;-78
2022/04/03 08:45:24;;;;;;;17.50;9.95;;;;;;;7.59;100.00;100031.88;5103393;28;20043;-77
2022/04/03 08:47:55;;;;;;;17.30;11.43;;;;;;;7.68;99.99;100030.97;5097723;28;20039;-79
2022/04/03 08:50:30;;;;;;;16.40;10.38;;;;;;;7.89;100.00;100029.81;5102614;28;20093;-76
2022/04/03 08:53:01;;;;;;;15.63;9.60;;;;;;;7.83;99.97;100039.06;5101931;28;20100;-77
2022/04/03 08:55:29;;;;;;;18.55;10.80;;;;;;;7.94;99.39;100040.63;5081030;28;20035;-76
2022/04/03 08:57:55;;;;;;;16.35;10.68;;;;;;;8.26;99.38;100033.97;5098625;28;20085;-75
2022/04/03 09:00:21;;;;;;;16.85;10.45;;;;;;;8.37;98.84;100032.88;5087356;28;20464;-76
2022/04/03 09:02:47;;;;;;;18.50;10.48;;;;;;;8.34;99.06;100024.53;5101324;28;20131;-75
2022/04/03 09:05:14;;;;;;;14.68;10.18;;;;;;;8.13;99.50;100017.88;5079291;28;20040;-76
2022/04/03 09:07:40;;;;;;;13.93;9.93;;;;;;;8.35;98.92;100027.00;5102733;28;20042;-75
2022/04/03 09:10:17;;;;;;;14.70;10.15;;;;;;;8.44;98.53;100031.28;5099764;28;20041;-76
2022/04/03 09:12:51;;;;;;;15.15;9.77;;;;;;;8.47;97.79;100027.53;5099709;28;20028;-76
2022/04/03 09:15:19;;;;;;;16.27;10.13;;;;;;;8.56;98.55;100028.44;5083274;28;20058;-78
2022/04/03 09:17:49;;;;;;;19.73;9.73;;;;;;;8.68;98.04;100032.41;5100304;28;20110;-76
2022/04/03 09:20:19;;;;;;;16.08;9.57;;;;;;;8.56;98.61;100005.72;5100017;28;20032;-76
2022/04/03 09:22:48;;;;;;;13.55;9.68;;;;;;;8.30;98.92;100016.19;5096781;28;20036;-80
2022/04/03 09:25:16;;;;;;;16.25;9.82;;;;;;;8.86;97.24;100021.03;5101845;28;20123;-77
2022/04/03 09:27:52;;;;;;;12.93;9.82;;;;;;;8.69;97.98;100031.44;5096246;27;20473;-76
2022/04/03 09:30:24;;;;;;;16.13;10.10;;;;;;;9.05;97.13;100011.25;5101426;28;20034;-77
2022/04/03 09:32:55;;;;;;;15.30;9.90;;;;;;;9.32;96.24;100002.28;5092144;28;20147;-77
2022/04/03 09:35:29;;;;;;;14.32;9.60;;;;;;;9.40;95.79;100033.75;5097531;28;20557;-77
2022/04/03 09:38:27;;;;;;;16.90;9.63;;;;;;;9.46;94.38;100010.47;5101559;28;20626;-75
2022/04/03 09:40:54;;;;;;;11.32;8.32;;;;;;;9.19;93.62;100002.75;5084209;28;20058;-76
2022/04/03 09:43:25;;;;;;;11.73;8.10;;;;;;;9.02;93.42;100006.31;5086199;28;20031;-77
2022/04/03 09:45:53;;;;;;;14.27;9.55;;;;;;;9.35;93.22;100017.69;5102996;28;20035;-76
2022/04/03 09:48:32;;;;;;;11.02;8.30;;;;;;;9.61;92.31;100014.09;5100682;28;20047;-77
2022/04/03 09:51:10;;;;;;;12.18;8.38;;;;;;;9.36;91.36;100005.41;5103105;28;20076;-77
2022/04/03 09:53:41;;;;;;;11.20;7.90;;;;;;;8.84;94.32;100010.72;5099383;28;20106;-76
2022/04/03 09:56:11;;;;;;;9.30;6.82;;;;;;;9.16;93.49;99997.84;5102971;28;20470;-76
2022/04/03 09:59:07;;;;;;;10.65;7.82;;;;;;;8.69;95.10;100001.81;5095418;28;20032;-77
2022/04/03 10:01:41;;;;;;;10.73;7.10;;;;;;;8.44;95.19;99994.66;5100370;28;20404;-74
2022/04/03 10:04:15;;;;;;;11.13;7.60;;;;;;;8.63;95.13;99992.78;5099156;28;20063;-74
2022/04/03 10:06:42;;;;;;;12.02;7.07;;;;;;;8.50;94.58;99992.44;5104123;28;20039;-74
2022/04/03 10:09:11;;;;;;;12.20;6.95;;;;;;;8.51;93.32;99991.44;5102272;28;20062;-76
2022/04/03 10:11:38;;;;;;;8.18;6.07;;;;;;;8.80;91.90;99977.13;5097153;28;20462;-76
2022/04/03 10:14:06;;;;;;;9.50;6.25;;;;;;;9.12;90.86;99983.44;5102397;28;20393;-76
2022/04/03 10:16:31;;;;;;;10.68;6.88;;;;;;;9.08;89.76;99984.75;5096609;28;20529;-76
2022/04/03 10:18:57;;;;;;;8.57;6.07;;;;;;;9.05;88.53;99974.59;5103358;28;20119;-76
2022/04/03 10:21:53;;;;;;;10.90;6.57;;;;;;;9.09;85.10;99971.47;5097304;28;20052;-77
2022/04/03 10:24:23;;;;;;;9.50;6.47;;;;;;;9.31;85.09;99978.88;5101963;28;20055;-76
2022/04/03 10:26:56;;;;;;;11.90;8.02;;;;;;;9.27;84.70;99973.97;5102240;28;20051;-77
2022/04/03 10:29:24;;;;;;;10.00;8.40;;;;;;;9.49;85.66;99960.34;5095149;28;20085;-76
2022/04/03 10:32:03;;;;;;;10.05;8.75;;;;;;;9.75;85.72;99959.38;5102693;28;20111;-76
2022/04/03 10:34:29;;;;;;;10.52;9.13;;;;;;;9.57;84.31;99963.78;5102577;28;20023;-77
2022/04/03 10:36:56;;;;;;;12.25;10.40;;;;;;;9.16;84.65;99961.19;5103582;28;20051;-76
2022/04/03 10:39:27;;;;;;;12.10;10.73;;;;;;;9.46;85.21;99972.00;5101174;28;20036;-77
2022/04/03 10:42:24;;;;;;;12.65;10.50;;;;;;;9.48;83.37;99958.72;5102505;28;20035;-76
2022/04/03 10:45:11;;;;;;;10.07;9.10;;;;;;;9.84;83.88;99948.72;5104286;28;20031;-77
2022/04/03 10:47:38;;;;;;;11.73;9.15;;;;;;;9.68;82.31;99949.53;5101302;28;20024;-77
2022/04/03 10:50:05;;;;;;;12.48;9.75;;;;;;;9.74;83.12;99955.91;5105683;28;20126;-75
2022/04/03 10:52:37;;;;;;;10.02;9.13;;;;;;;10.01;80.58;99943.41;5107861;28;20115;-78
2022/04/03 10:55:22;;;;;;;10.82;9.73;;;;;;;9.83;79.67;99941.81;5101466;28;20520;-77
2022/04/03 10:57:53;;;;;;;10.65;9.55;;;;;;;10.08;78.93;99944.38;5108668;28;20153;-76
2022/04/03 11:00:18;;;;;;;8.82;8.05;;;;;;;9.83;76.02;99936.59;5101804;28;20092;-76
2022/04/03 11:02:51;;;;;;;9.20;8.30;;;;;;;10.45;75.71;99920.31;5105829;28;20490;-76
2022/04/03 11:05:26;;;;;;;8.82;8.00;;;;;;;10.81;74.63;99922.44;5105736;28;20062;-76
2022/04/03 11:08:02;;;;;;;8.38;7.63;;;;;;;10.85;72.52;99915.81;5104278;28;20028;-78
2022/04/03 11:10:54;;;;;;;8.38;7.68;;;;;;;11.14;75.02;99906.41;5101895;28;20084;-76
2022/04/03 11:13:34;;;;;;;9.30;8.35;;;;;;;10.81;75.21;99917.97;5094750;28;20025;-75
2022/04/03 11:16:10;;;;;;;13.60;8.80;;;;;;;10.65;74.84;99897.06;5103786;28;20489;-76
2022/04/03 11:18:36;;;;;;;9.65;8.25;;;;;;;11.25;76.32;99892.03;5105397;28;20037;-75